Time;durP1;ratioP1;P1;durP2;ratioP2;P2;SDS_P1;SDS_P2;PMS_P1;PMS_P2;Temp;Humidity;BMP_temperature;BMP_pressure;BME280_temperature;BME280_humidity;BME280_pressure;Samples;Min_cycle;Max_cycle;Signal;HPM_P1;HPM_P2
2022/09/01 00:02:26;;;;;;;;;;;;;;;24.73;45.69;102480.13;5038754;28;20035;-77
2022/09/01 00:04:54;;;;;;;6.20;2.40;;;;;;;24.76;45.77;102476.59;5038419;28;19916;-77
2022/09/01 00:07:20;;;;;;;8.02;3.25;;;;;;;24.73;45.89;102480.13;5038650;28;20468;-77
2022/09/01 00:09:45;;;;;;;6.93;3.67;;;;;;;24.81;45.75;102467.94;5037221;28;20033;-83
2022/09/01 00:12:11;;;;;;;10.90;3.70;;;;;;;24.78;45.57;102468.66;5038406;28;20152;-82
2022/09/01 00:14:39;;;;;;;5.38;2.30;;;;;;;24.72;46.05;102469.34;5037848;28;20033;-81
2022/09/01 00:17:10;;;;;;;6.45;3.35;;;;;;;24.49;46.65;102474.84;5038322;28;20045;-77
2022/09/01 00:19:36;;;;;;;8.68;2.63;;;;;;;24.66;46.45;102471.63;5038096;28;20037;-77
2022/09/01 00:22:03;;;;;;;5.90;2.40;;;;;;;24.74;46.28;102465.00;5023645;28;20044;-77
2022/09/01 00:24:28;;;;;;;7.50;2.90;;;;;;;24.75;46.03;102465.78;5038061;28;20029;-78
2022/09/01 00:26:55;;;;;;;8.98;2.85;;;;;;;24.69;46.64;102465.28;5038545;28;20039;-77
2022/09/01 00:29:21;;;;;;;8.38;3.17;;;;;;;24.80;46.46;102460.72;5038105;28;20479;-77
2022/09/01 00:31:47;;;;;;;7.03;3.08;;;;;;;24.79;46.79;102456.31;5037735;28;20044;-77
2022/09/01 00:34:14;;;;;;;9.05;3.15;;;;;;;24.74;46.80;102464.19;5033235;28;20030;-84
2022/09/01 00:36:39;;;;;;;7.30;2.65;;;;;;;24.70;46.96;102460.50;5035313;28;20052;-77
2022/09/01 00:39:06;;;;;;;9.25;2.75;;;;;;;24.62;47.44;102457.56;5035175;28;20476;-82
2022/09/01 00:41:37;;;;;;;15.30;3.38;;;;;;;24.68;47.47;102455.28;5035100;28;20101;-77
2022/09/01 00:44:10;;;;;;;9.20;3.38;;;;;;;24.67;47.25;102455.66;5034709;28;20065;-77
2022/09/01 00:46:41;;;;;;;8.32;3.65;;;;;;;24.62;47.65;102451.16;5033664;28;20030;-77
2022/09/01 00:49:13;;;;;;;7.40;2.90;;;;;;;24.64;47.78;102454.41;5034960;28;20088;-77
2022/09/01 00:51:44;;;;;;;8.68;2.40;;;;;;;24.61;47.87;102449.53;5034496;28;20125;-77
2022/09/01 00:54:14;;;;;;;7.97;2.67;;;;;;;24.73;47.83;102445.78;5034655;28;20380;-77
2022/09/01 00:56:41;;;;;;;5.93;2.28;;;;;;;24.66;48.08;102451.25;5034433;28;20538;-77
2022/09/01 00:59:10;;;;;;;12.85;3.20;;;;;;;24.66;47.90;102452.03;5034859;28;20029;-77
2022/09/01 01:01:35;;;;;;;9.23;3.03;;;;;;;24.62;48.54;102448.34;5034531;28;20545;-77
2022/09/01 01:04:04;;;;;;;7.47;2.88;;;;;;;24.65;48.56;102446.84;5034892;28;20029;-77
2022/09/01 01:06:31;;;;;;;10.95;3.53;;;;;;;24.73;47.97;102446.59;5034601;28;20041;-77
2022/09/01 01:08:59;;;;;;;6.78;2.97;;;;;;;24.65;48.37;102442.06;5034484;28;20037;-77
2022/09/01 01:11:31;;;;;;;10.10;2.83;;;;;;;24.69;48.29;102440.13;5030285;28;20026;-77
2022/09/01 01:14:04;;;;;;;6.65;2.67;;;;;;;24.67;48.29;102444.47;5032094;28;20399;-79
2022/09/01 01:16:31;;;;;;;8.63;2.78;;;;;;;24.66;48.73;102440.88;5034320;28;20021;-80
2022/09/01 01:18:56;;;;;;;11.15;3.10;;;;;;;24.70;48.26;102441.72;5034294;28;20492;-77
2022/09/01 01:24:33;;;;;;;8.23;3.13;;;;;;;24.73;48.81;102435.41;5034378;28;20095;-77
2022/09/01 01:27:00;;;;;;;12.07;3.75;;;;;;;24.80;48.57;102437.56;5027435;28;20025;-77
2022/09/01 01:29:30;;;;;;;10.77;3.28;;;;;;;24.85;48.62;102434.44;5034214;28;20033;-77
2022/09/01 01:31:56;;;;;;;9.63;2.90;;;;;;;24.83;48.38;102436.81;5033612;28;20557;-77
2022/09/01 01:34:22;;;;;;;7.47;2.65;;;;;;;25.03;48.15;102429.19;5033719;28;20112;-77
2022/09/01 01:36:48;;;;;;;10.70;2.95;;;;;;;25.05;48.20;102418.47;5034030;28;20037;-77
2022/09/01 01:39:18;;;;;;;8.25;3.25;;;;;;;25.02;48.33;102413.59;5033664;28;20022;-83
2022/09/01 01:41:47;;;;;;;11.60;3.47;;;;;;;24.91;48.43;102419.78;5033539;28;20025;-77
2022/09/01 01:44:16;;;;;;;11.47;3.43;;;;;;;24.86;48.23;102411.72;5030436;28;20432;-77
2022/09/01 01:46:45;;;;;;;10.48;2.85;;;;;;;24.88;48.50;102409.34;5033378;28;20486;-77
2022/09/01 01:49:13;;;;;;;13.90;4.70;;;;;;;24.90;48.67;102408.97;5033876;28;20033;-77
2022/09/01 01:51:39;;;;;;;8.23;2.78;;;;;;;24.90;48.30;102406.19;5033442;28;20021;-77
2022/09/01 01:54:06;;;;;;;14.88;4.10;;;;;;;24.93;48.64;102408.22;5033556;28;20029;-77
2022/09/01 01:56:38;;;;;;;16.20;3.22;;;;;;;24.87;48.24;102406.94;5033459;28;20414;-77
2022/09/01 01:59:06;;;;;;;15.52;4.28;;;;;;;24.90;48.15;102398.59;5033607;28;20475;-77
2022/09/01 02:01:32;;;;;;;13.98;3.22;;;;;;;24.99;47.73;102403.13;5033252;28;20543;-77
2022/09/01 02:03:59;;;;;;;12.60;3.55;;;;;;;24.96;47.82;102401.09;5033728;28;20030;-83
2022/09/01 02:06:26;;;;;;;11.65;3.38;;;;;;;25.02;47.82;102397.63;5032299;28;20084;-77
2022/09/01 02:08:57;;;;;;;9.32;3.08;;;;;;;24.92;48.22;102401.81;5033296;28;20037;-76
2022/09/01 02:11:27;;;;;;;9.30;3.28;;;;;;;24.86;48.11;102402.50;5033345;28;20033;-77
2022/09/01 02:13:57;;;;;;;12.35;3.67;;;;;;;24.88;48.15;102402.97;5033079;28;20025;-77
2022/09/01 02:16:25;;;;;;;11.23;3.67;;;;;;;24.76;48.17;102400.31;5033257;28;20106;-77
2022/09/01 02:18:52;;;;;;;13.68;4.20;;;;;;;24.79;48.15;102394.81;5033201;28;20070;-77
2022/09/01 02:21:20;;;;;;;13.88;4.00;;;;;;;24.56;48.91;102402.31;5033110;28;20028;-77
2022/09/01 02:23:59;;;;;;;17.10;4.00;;;;;;;24.39;49.70;102397.19;5033306;28;20033;-78
2022/09/01 02:26:31;;;;;;;10.13;3.13;;;;;;;24.41;49.56;102408.78;5033011;28;20026;-77
2022/09/01 02:29:03;;;;;;;10.07;3.40;;;;;;;24.33;49.91;102394.72;5032528;28;20026;-76
2022/09/01 02:31:31;;;;;;;21.50;4.45;;;;;;;24.52;49.20;102393.88;5033100;28;20029;-77
2022/09/01 02:33:57;;;;;;;13.05;3.95;;;;;;;24.60;49.22;102404.03;5032918;28;20075;-77
2022/09/01 02:36:24;;;;;;;12.35;3.70;;;;;;;24.55;49.50;102397.91;5032944;28;20029;-77
2022/09/01 02:38:51;;;;;;;16.30;5.28;;;;;;;24.61;48.99;102397.25;5028391;28;20056;-77
2022/09/01 02:41:19;;;;;;;22.20;4.70;;;;;;;24.60;49.50;102392.03;5033011;28;20036;-77
2022/09/01 02:43:45;;;;;;;14.73;4.55;;;;;;;24.92;48.55;102387.84;5032689;28;20029;-78
2022/09/01 02:46:12;;;;;;;15.95;4.20;;;;;;;24.95;48.39;102399.50;5032409;28;20124;-77
2022/09/01 02:48:41;;;;;;;15.48;4.28;;;;;;;24.94;48.30;102395.06;5031762;28;20029;-77
2022/09/01 02:51:13;;;;;;;11.43;4.03;;;;;;;24.95;47.97;102385.50;5032483;28;20025;-77
2022/09/01 02:53:41;;;;;;;15.75;4.60;;;;;;;25.02;47.78;102391.22;5032548;28;20052;-77
2022/09/01 02:56:13;;;;;;;15.93;4.13;;;;;;;25.05;48.05;102387.72;5032276;28;20424;-77
2022/09/01 02:58:46;;;;;;;13.00;3.53;;;;;;;25.01;47.83;102395.19;5032460;28;20028;-78
2022/09/01 03:01:20;;;;;;;18.30;4.13;;;;;;;25.00;48.21;102393.56;5016639;28;20388;-77
2022/09/01 03:03:47;;;;;;;11.57;3.65;;;;;;;25.06;47.72;102390.13;5031230;28;20518;-77
2022/09/01 03:06:13;;;;;;;14.38;3.95;;;;;;;25.12;47.95;102391.44;5032583;28;20053;-77
2022/09/01 03:08:39;;;;;;;18.88;4.43;;;;;;;24.94;48.16;102395.88;5032344;28;20029;-77
2022/09/01 03:11:09;;;;;;;11.55;4.18;;;;;;;25.19;47.55;102390.75;5032477;28;20083;-82
2022/09/01 03:13:35;;;;;;;;;;;;;;;24.99;48.28;102387.16;5032924;28;20029;-80
2022/09/01 03:16:01;;;;;;;13.50;4.30;;;;;;;25.05;47.76;102382.91;5032073;28;19917;-77
2022/09/01 03:18:27;;;;;;;18.20;3.92;;;;;;;25.15;47.62;102384.28;5032412;28;20030;-77
2022/09/01 03:20:53;;;;;;;16.55;4.55;;;;;;;24.92;48.60;102382.25;5032300;28;20091;-77
2022/09/01 03:23:19;;;;;;;16.05;4.00;;;;;;;25.10;47.92;102379.00;5031862;28;20062;-78
2022/09/01 03:25:46;;;;;;;14.93;5.47;;;;;;;25.09;47.80;102377.38;5032248;28;20033;-79
2022/09/01 03:28:13;;;;;;;15.13;4.82;;;;;;;24.99;48.41;102372.38;5032023;28;20033;-77
2022/09/01 03:30:47;;;;;;;17.05;4.43;;;;;;;25.03;48.30;102381.66;5032273;28;20040;-77
2022/09/01 03:33:15;;;;;;;19.95;5.32;;;;;;;25.00;48.49;102376.78;5032230;28;20025;-77
2022/09/01 03:35:42;;;;;;;12.68;4.40;;;;;;;24.90;48.42;102381.81;5032361;28;20091;-77
2022/09/01 03:38:08;;;;;;;19.10;4.38;;;;;;;24.86;48.62;102380.13;5032039;28;20120;-77
2022/09/01 03:40:35;;;;;;;15.38;4.97;;;;;;;24.81;49.04;102375.69;5032311;28;20446;-77
2022/09/01 03:43:04;;;;;;;13.88;4.07;;;;;;;24.98;48.28;102373.56;5030852;28;20064;-77
2022/09/01 03:45:37;;;;;;;19.10;4.25;;;;;;;25.06;48.32;102376.13;5031768;28;20045;-82
2022/09/01 03:48:07;;;;;;;13.52;4.50;;;;;;;25.12;48.14;102374.66;5032809;28;20033;-78
2022/09/01 03:50:39;;;;;;;11.48;4.20;;;;;;;25.08;48.50;102376.56;5031995;28;20480;-83
2022/09/01 03:53:06;;;;;;;15.90;4.15;;;;;;;25.12;48.22;102366.25;5031912;28;20022;-84
2022/09/01 03:55:34;;;;;;;16.33;3.88;;;;;;;24.96;48.67;102375.94;5032306;28;20024;-78
2022/09/01 03:58:05;;;;;;;18.25;4.70;;;;;;;24.75;49.38;102368.78;5031902;28;20496;-77
2022/09/01 04:00:34;;;;;;;19.50;4.22;;;;;;;25.01;48.55;102364.41;5031912;28;20084;-78
2022/09/01 04:03:02;;;;;;;13.00;4.05;;;;;;;25.03;48.56;102364.88;5032118;28;20484;-84
2022/09/01 04:05:32;;;;;;;19.58;5.35;;;;;;;24.85;48.98;102359.75;5032045;28;20454;-77
2022/09/01 04:08:02;;;;;;;12.40;4.00;;;;;;;24.84;48.62;102357.34;5032443;28;20033;-79
2022/09/01 04:10:31;;;;;;;10.82;4.35;;;;;;;24.90;48.82;102353.88;5036507;28;20032;-79
2022/09/01 04:13:01;;;;;;;15.13;4.95;;;;;;;25.01;48.47;102356.84;5035360;28;20034;-79
2022/09/01 04:15:28;;;;;;;16.45;5.13;;;;;;;24.84;48.46;102351.75;5035676;28;20396;-84
2022/09/01 04:18:09;;;;;;;13.65;4.85;;;;;;;24.56;49.55;102349.22;5035838;28;20021;-84
2022/09/01 04:20:55;;;;;;;13.95;4.03;;;;;;;24.62;49.30;102353.34;5036010;28;20099;-78
2022/09/01 04:23:25;;;;;;;14.45;5.28;;;;;;;24.77;49.09;102349.63;5020737;28;20021;-79
2022/09/01 04:26:07;;;;;;;15.65;4.13;;;;;;;24.67;49.15;102343.84;5035263;28;20436;-78
2022/09/01 04:28:36;;;;;;;12.02;4.25;;;;;;;24.63;49.34;102347.38;5039112;28;20024;-84
2022/09/01 04:31:07;;;;;;;12.52;4.18;;;;;;;24.50;49.43;102342.34;5037189;28;20048;-84
2022/09/01 04:33:45;;;;;;;20.58;6.03;;;;;;;24.57;49.47;102339.69;5042163;28;20061;-84
2022/09/01 04:36:24;;;;;;;19.17;5.38;;;;;;;24.73;49.05;102340.38;5043491;28;20080;-86
2022/09/01 04:39:01;;;;;;;13.15;4.38;;;;;;;24.86;48.51;102338.19;5033037;28;20411;-85
2022/09/01 04:41:32;;;;;;;14.38;4.60;;;;;;;24.87;48.49;102339.84;5027604;28;20041;-83
2022/09/01 04:44:03;;;;;;;17.77;5.50;;;;;;;24.88;48.64;102330.28;5026532;28;20030;-78
2022/09/01 04:46:34;;;;;;;13.70;4.55;;;;;;;24.67;49.02;102341.06;5025619;28;20041;-77
2022/09/01 04:49:09;;;;;;;17.70;5.68;;;;;;;24.74;49.11;102344.00;5029420;28;20113;-83
2022/09/01 04:51:43;;;;;;;13.85;3.75;;;;;;;24.80;48.92;102334.94;5023078;28;20832;-82
2022/09/01 04:54:13;;;;;;;18.92;4.65;;;;;;;24.78;48.99;102331.69;5022270;28;20033;-77
2022/09/01 04:56:40;;;;;;;14.75;4.07;;;;;;;24.77;49.04;102329.25;5025220;28;20024;-79
2022/09/01 04:59:07;;;;;;;17.75;5.30;;;;;;;24.74;49.06;102330.00;5021784;28;20030;-77
2022/09/01 05:01:43;;;;;;;14.35;4.75;;;;;;;24.76;48.75;102338.81;5043013;28;20511;-80
2022/09/01 05:04:32;;;;;;;14.43;4.78;;;;;;;24.72;48.71;102333.19;5022503;28;20496;-78
2022/09/01 05:06:59;;;;;;;14.50;4.50;;;;;;;24.77;48.52;102335.66;5024699;28;20488;-77
2022/09/01 05:09:31;;;;;;;17.88;5.15;;;;;;;24.75;48.87;102335.22;5024374;28;20473;-78
2022/09/01 05:12:09;;;;;;;10.82;4.82;;;;;;;24.70;49.06;102324.34;5024200;28;20072;-79
2022/09/01 05:14:41;;;;;;;16.25;4.80;;;;;;;24.74;48.63;102336.41;5024474;28;20010;-85
2022/09/01 05:17:09;;;;;;;16.02;4.55;;;;;;;24.57;48.99;102331.31;5020786;28;20366;-86
2022/09/01 05:19:40;;;;;;;17.67;4.60;;;;;;;24.71;48.82;102337.16;5027810;28;20091;-77
2022/09/01 05:22:07;;;;;;;13.32;5.03;;;;;;;24.44;49.24;102330.66;5034035;28;20025;-77
2022/09/01 05:24:34;;;;;;;15.82;4.53;;;;;;;24.68;48.91;102332.31;5034138;28;20032;-77
2022/09/01 05:27:00;;;;;;;11.93;4.70;;;;;;;24.67;48.54;102336.28;5034420;28;20513;-77
2022/09/01 05:29:27;;;;;;;17.40;5.53;;;;;;;24.69;48.65;102339.50;5034480;28;20029;-77
2022/09/01 05:31:54;;;;;;;15.90;4.85;;;;;;;24.74;48.61;102335.59;5034632;28;20383;-77
2022/09/01 05:34:28;;;;;;;13.07;3.90;;;;;;;24.72;48.48;102338.78;5033992;28;20029;-77
2022/09/01 05:36:58;;;;;;;16.80;4.85;;;;;;;24.82;48.23;102340.94;5034364;28;20029;-77
2022/09/01 05:39:25;;;;;;;12.80;4.43;;;;;;;24.77;48.37;102341.25;5034140;28;20026;-77
2022/09/01 05:41:52;;;;;;;17.13;4.47;;;;;;;24.71;48.50;102339.97;5032891;28;20029;-77
2022/09/01 05:44:21;;;;;;;21.10;5.40;;;;;;;24.76;48.50;102342.44;5034039;28;20456;-82
2022/09/01 05:46:48;;;;;;;18.17;4.63;;;;;;;24.74;48.62;102341.19;5032136;28;20032;-77
2022/09/01 05:49:17;;;;;;;17.83;5.15;;;;;;;24.69;48.71;102339.50;5033562;28;20282;-84
2022/09/01 05:51:48;;;;;;;13.18;4.63;;;;;;;24.82;47.98;102337.34;5034006;28;20033;-77
2022/09/01 05:54:15;;;;;;;15.45;5.35;;;;;;;24.79;48.37;102338.09;5033941;28;20040;-83
2022/09/01 05:56:42;;;;;;;24.60;4.70;;;;;;;24.82;48.49;102338.16;5033946;28;20479;-83
2022/09/01 05:59:09;;;;;;;19.52;4.90;;;;;;;24.90;47.98;102339.09;5033811;28;20029;-76
2022/09/01 06:01:40;;;;;;;16.40;4.28;;;;;;;24.69;48.66;102336.72;5033691;28;20017;-77
2022/09/01 06:04:07;;;;;;;10.77;4.68;;;;;;;24.70;48.76;102338.31;5033721;28;20031;-77
2022/09/01 06:06:39;;;;;;;13.35;4.43;;;;;;;24.75;48.55;102346.41;5033650;28;20056;-77
2022/09/01 06:09:07;;;;;;;13.30;4.38;;;;;;;24.75;48.42;102337.22;5033571;28;20041;-77
2022/09/01 06:11:34;;;;;;;12.90;4.40;;;;;;;24.77;48.15;102341.25;5033497;28;20029;-77
2022/09/01 06:14:00;;;;;;;18.33;3.70;;;;;;;24.84;47.97;102334.97;5033552;28;20021;-77
2022/09/01 06:16:27;;;;;;;14.50;4.55;;;;;;;24.82;47.96;102345.72;5048522;28;20092;-78
2022/09/01 06:18:55;;;;;;;11.40;4.68;;;;;;;24.80;48.35;102337.72;5033328;28;20032;-76
2022/09/01 06:21:23;;;;;;;10.00;4.00;;;;;;;24.84;48.27;102346.16;5032924;28;20026;-77
2022/09/01 06:23:52;;;;;;;12.25;4.65;;;;;;;24.90;47.68;102351.06;5033328;28;20034;-78
2022/09/01 06:26:28;;;;;;;14.75;4.68;;;;;;;24.85;47.53;102337.38;5027551;28;20022;-77
2022/09/01 06:29:00;;;;;;;12.88;4.40;;;;;;;24.83;47.79;102339.75;5012222;28;20040;-76
2022/09/01 06:31:32;;;;;;;15.20;4.43;;;;;;;24.95;47.80;102349.16;5012934;28;20432;-78
2022/09/01 06:34:00;;;;;;;10.70;3.30;;;;;;;24.91;47.57;102346.28;5023489;28;20124;-81
2022/09/01 06:36:27;;;;;;;14.98;4.28;;;;;;;25.06;47.11;102350.97;5032967;28;20112;-79
2022/09/01 06:38:54;;;;;;;13.07;4.28;;;;;;;25.07;47.08;102344.19;5033051;28;20025;-77
2022/09/01 06:41:22;;;;;;;13.32;3.85;;;;;;;25.00;47.54;102346.84;5032935;28;20029;-78
2022/09/01 06:43:54;;;;;;;11.70;4.95;;;;;;;24.95;47.48;102351.97;5031861;28;20037;-77
2022/09/01 06:46:22;;;;;;;13.98;4.15;;;;;;;25.07;47.22;102344.19;5032551;28;20484;-77
2022/09/01 06:48:49;;;;;;;10.85;3.72;;;;;;;25.25;46.94;102343.69;5031597;28;20124;-78
2022/09/01 06:51:19;;;;;;;19.00;5.07;;;;;;;25.06;47.21;102350.97;5032996;28;20042;-79
2022/09/01 06:53:49;;;;;;;16.13;3.80;;;;;;;25.04;47.24;102344.94;5032938;28;20065;-78
2022/09/01 06:56:17;;;;;;;10.70;4.43;;;;;;;25.15;47.01;102345.13;5032889;28;20033;-78
2022/09/01 06:58:47;;;;;;;14.18;3.58;;;;;;;25.02;47.54;102352.09;5032771;28;20468;-78
2022/09/01 07:01:18;;;;;;;13.43;4.35;;;;;;;25.17;47.17;102342.78;5032852;28;20030;-78
2022/09/01 07:03:46;;;;;;;12.55;3.50;;;;;;;25.12;47.02;102343.09;5032781;28;20030;-77
2022/09/01 07:06:14;;;;;;;12.93;4.57;;;;;;;25.20;47.17;102355.19;5032727;28;20527;-84
2022/09/01 07:08:48;;;;;;;12.10;4.25;;;;;;;25.33;46.72;102348.22;5032446;28;20033;-77
2022/09/01 07:11:23;;;;;;;10.15;3.58;;;;;;;25.27;46.60;102352.53;5032514;28;20029;-78
2022/09/01 07:13:51;;;;;;;8.75;3.88;;;;;;;25.28;46.59;102351.31;5032663;28;20028;-78
2022/09/01 07:16:18;;;;;;;17.10;4.18;;;;;;;25.40;45.93;102351.94;5030502;28;20411;-78
2022/09/01 07:18:44;;;;;;;12.45;4.65;;;;;;;25.39;46.28;102350.31;5032394;28;20029;-78
2022/09/01 07:21:10;;;;;;;11.98;3.97;;;;;;;25.40;46.08;102354.75;5032840;28;20030;-86
2022/09/01 07:23:37;;;;;;;8.57;3.85;;;;;;;25.39;46.31;102355.94;5032823;28;20029;-88
2022/09/01 07:26:05;;;;;;;7.90;3.33;;;;;;;25.58;45.77;102352.19;5032699;28;20494;-85
2022/09/01 07:28:32;;;;;;;13.57;4.07;;;;;;;25.53;45.85;102354.50;5032183;28;20060;-85
2022/09/01 07:30:59;;;;;;;17.95;5.03;;;;;;;25.63;45.48;102353.88;5030646;28;20030;-78
2022/09/01 07:33:26;;;;;;;13.90;3.85;;;;;;;25.47;45.56;102359.63;5031028;28;20040;-79
2022/09/01 07:35:54;;;;;;;16.17;4.22;;;;;;;25.63;45.36;102356.69;5031085;28;20056;-78
2022/09/01 07:38:24;;;;;;;18.50;4.90;;;;;;;25.47;45.01;102368.03;5031360;28;20379;-78
2022/09/01 07:40:51;;;;;;;;;;;;;;;25.37;45.24;102363.06;5032597;28;20391;-78
2022/09/01 07:43:21;;;;;;;10.60;2.95;;;;;;;25.45;44.96;102367.59;5036173;28;19928;-81
2022/09/01 07:45:49;;;;;;;15.02;3.78;;;;;;;25.51;44.62;102359.69;5035603;28;20488;-91
2022/09/01 07:48:22;;;;;;;13.75;4.28;;;;;;;25.55;44.51;102357.75;5036293;28;20068;-78
2022/09/01 07:50:51;;;;;;;9.93;3.42;;;;;;;25.37;44.80;102358.28;5037415;28;20364;-88
2022/09/01 07:53:23;;;;;;;9.40;3.00;;;;;;;25.45;44.15;102357.19;5037009;28;20028;-80
2022/09/01 07:55:51;;;;;;;7.00;3.08;;;;;;;25.55;44.14;102355.75;5037525;28;20083;-78
2022/09/01 07:58:20;;;;;;;11.38;3.28;;;;;;;25.67;44.02;102349.13;5037095;28;20021;-79
2022/09/01 08:00:48;;;;;;;17.00;3.25;;;;;;;25.66;44.25;102337.13;5034775;28;20060;-89
2022/09/01 08:03:16;;;;;;;9.98;3.65;;;;;;;25.57;44.40;102350.59;5037030;28;20033;-82
2022/09/01 08:05:42;;;;;;;11.07;3.20;;;;;;;25.66;44.61;102355.91;5037202;28;20064;-91
2022/09/01 08:08:08;;;;;;;8.52;3.50;;;;;;;25.75;44.54;102355.66;5037097;28;20096;-92
2022/09/01 08:10:39;;;;;;;8.93;2.80;;;;;;;25.74;44.69;102360.44;5035411;28;20028;-85
2022/09/01 08:13:05;;;;;;;9.65;3.15;;;;;;;25.68;44.65;102361.94;5036720;28;20380;-87
2022/09/01 08:15:30;;;;;;;11.45;3.38;;;;;;;25.81;44.95;102356.94;5025418;28;20030;-91
2022/09/01 08:17:56;;;;;;;11.57;2.95;;;;;;;25.77;44.79;102347.69;5020536;28;20391;-86
2022/09/01 08:20:21;;;;;;;8.90;3.40;;;;;;;25.67;44.96;102368.72;5030377;28;20034;-90
2022/09/01 08:22:47;;;;;;;9.05;3.10;;;;;;;25.62;44.69;102357.88;5015545;28;20025;-79
2022/09/01 08:25:14;;;;;;;7.32;3.60;;;;;;;25.55;45.05;102360.56;5016739;28;20020;-79
2022/09/01 08:27:40;;;;;;;11.00;3.42;;;;;;;25.66;45.04;102358.72;5024920;28;20017;-78
2022/09/01 08:30:09;;;;;;;21.48;4.25;;;;;;;25.71;44.96;102361.19;5021911;28;20124;-88
2022/09/01 08:32:35;;;;;;;11.35;3.50;;;;;;;25.61;45.37;102361.81;5022179;28;20022;-92
2022/09/01 08:35:03;;;;;;;9.25;2.97;;;;;;;25.66;45.11;102355.91;5029947;28;20055;-88
2022/09/01 08:37:30;;;;;;;14.52;3.10;;;;;;;25.85;44.58;102357.81;5023855;28;20111;-79
2022/09/01 08:39:56;;;;;;;9.65;3.20;;;;;;;25.72;45.27;102365.63;5024069;28;20365;-80
2022/09/01 08:43:06;;;;;;;7.82;3.10;;;;;;;25.95;44.81;102363.56;5020510;28;20025;-80
2022/09/01 08:45:37;;;;;;;5.78;2.22;;;;;;;26.34;44.30;102356.81;4971163;28;20042;-87
2022/09/01 08:48:40;;;;;;;8.27;3.00;;;;;;;26.42;43.47;102364.97;5008416;28;20041;-79
2022/09/01 08:51:21;;;;;;;5.63;2.17;;;;;;;26.45;42.69;102361.41;5017910;28;20049;-79
2022/09/01 08:53:58;;;;;;;12.43;3.78;;;;;;;26.53;42.73;102357.50;5025510;28;20025;-90
2022/09/01 08:56:25;;;;;;;8.95;2.70;;;;;;;26.76;42.37;102348.13;5016214;28;20033;-77
2022/09/01 08:58:51;;;;;;;10.43;3.92;;;;;;;26.89;42.34;102351.41;5020823;28;20388;-90
2022/09/01 09:01:30;;;;;;;7.38;2.90;;;;;;;26.64;42.30;102354.78;5020756;28;20029;-89
2022/09/01 09:04:15;;;;;;;6.85;2.90;;;;;;;26.68;42.00;102352.03;5026722;28;20050;-85
2022/09/01 09:06:54;;;;;;;7.68;2.97;;;;;;;26.92;41.74;102357.06;5024339;28;20037;-83
2022/09/01 09:09:25;;;;;;;13.40;3.17;;;;;;;26.90;41.87;102353.81;5014471;28;20053;-73
2022/09/01 09:12:01;;;;;;;7.75;2.95;;;;;;;26.78;41.77;102345.72;5026654;28;20025;-72
2022/09/01 09:14:32;;;;;;;8.55;2.45;;;;;;;26.50;41.69;102346.22;5013288;28;20049;-73
2022/09/01 09:16:59;;;;;;;8.45;3.47;;;;;;;26.58;41.80;102344.31;5025706;28;20036;-85
2022/09/01 09:19:31;;;;;;;6.68;2.47;;;;;;;26.76;41.69;102340.50;5014434;28;20049;-72
2022/09/01 09:22:00;;;;;;;13.13;3.22;;;;;;;26.66;41.95;102332.78;5013861;28;20022;-70
2022/09/01 09:24:25;;;;;;;9.35;3.00;;;;;;;26.57;42.00;102332.28;5013959;28;20091;-83
2022/09/01 09:26:53;;;;;;;10.60;3.13;;;;;;;26.45;42.33;102341.78;5014194;28;20022;-70
2022/09/01 09:29:21;;;;;;;9.45;2.75;;;;;;;26.54;42.38;102331.06;5012883;28;20041;-72
2022/09/01 09:31:47;;;;;;;12.98;3.00;;;;;;;26.39;42.41;102346.13;5012775;28;20092;-70
2022/09/01 09:34:36;;;;;;;6.55;2.65;;;;;;;26.30;42.66;102340.00;5016839;28;20123;-68
2022/09/01 09:37:28;;;;;;;10.13;3.05;;;;;;;26.29;42.86;102339.16;5031714;28;20033;-78
2022/09/01 09:40:10;;;;;;;7.38;2.85;;;;;;;26.29;42.84;102338.34;5023084;28;20045;-70
2022/09/01 09:42:38;;;;;;;8.38;2.90;;;;;;;26.34;42.93;102337.22;5033340;28;20021;-70
2022/09/01 09:45:37;;;;;;;5.50;2.33;;;;;;;26.38;43.18;102327.66;5018651;28;20049;-71
2022/09/01 09:48:09;;;;;;;9.48;2.58;;;;;;;26.47;42.64;102331.00;5013749;28;20040;-70
2022/09/01 09:50:39;;;;;;;6.75;2.25;;;;;;;26.50;42.99;102324.59;5014811;28;20042;-70
2022/09/01 09:53:37;;;;;;;7.95;2.20;;;;;;;26.32;42.66;102334.81;5013678;28;20056;-72
2022/09/01 09:56:19;;;;;;;7.40;2.30;;;;;;;26.63;41.94;102324.34;4980421;28;20123;-70
2022/09/01 09:58:47;;;;;;;11.90;3.05;;;;;;;26.66;41.89;102327.16;5014421;28;20435;-70
2022/09/01 10:01:28;;;;;;;9.82;2.42;;;;;;;26.69;41.90;102322.81;5012789;28;20120;-74
2022/09/01 10:03:59;;;;;;;5.55;2.15;;;;;;;26.72;41.52;102320.03;5012109;28;20065;-70
2022/09/01 10:06:29;;;;;;;9.00;2.75;;;;;;;26.57;42.00;102311.84;5015304;28;20136;-74
2022/09/01 10:08:55;;;;;;;10.80;2.92;;;;;;;26.60;41.92;102322.28;5033204;28;20048;-73
2022/09/01 10:11:28;;;;;;;8.15;3.03;;;;;;;26.76;41.74;102315.25;5032621;28;20569;-71
2022/09/01 10:13:54;;;;;;;12.20;2.63;;;;;;;26.59;42.11;102320.69;5032176;28;20025;-73
2022/09/01 10:16:27;;;;;;;10.20;2.97;;;;;;;26.86;41.72;102312.94;5032778;28;20034;-72
2022/09/01 10:18:59;;;;;;;7.05;2.90;;;;;;;26.93;41.83;102319.41;5024784;28;20030;-72
2022/09/01 10:21:37;;;;;;;9.35;2.03;;;;;;;27.00;41.17;102310.25;5015618;28;20475;-82
2022/09/01 10:24:32;;;;;;;11.57;3.67;;;;;;;27.12;41.16;102311.97;5030560;28;20109;-81
2022/09/01 10:27:18;;;;;;;6.00;2.53;;;;;;;27.36;40.35;102312.16;5032922;28;20029;-69
2022/09/01 10:29:54;;;;;;;9.18;2.35;;;;;;;27.19;40.43;102310.03;5030487;28;20518;-68
2022/09/01 10:32:46;;;;;;;5.97;2.22;;;;;;;27.26;40.30;102303.66;5032459;28;20061;-70
2022/09/01 10:35:18;;;;;;;7.35;2.63;;;;;;;27.23;40.01;102304.44;5025859;28;20501;-71
2022/09/01 10:37:46;;;;;;;7.38;2.50;;;;;;;27.27;40.00;102299.66;5012853;28;20029;-70
2022/09/01 10:40:32;;;;;;;8.90;2.58;;;;;;;27.33;39.65;102298.91;5012705;28;20042;-70
2022/09/01 10:43:20;;;;;;;9.50;3.03;;;;;;;27.17;40.33;102298.38;5019939;28;20391;-70
2022/09/01 10:45:46;;;;;;;4.93;2.40;;;;;;;26.69;41.71;102301.19;5019022;28;20088;-72
2022/09/01 10:48:32;;;;;;;9.13;2.08;;;;;;;26.83;41.43;102292.91;5021894;28;20566;-71
2022/09/01 10:51:13;;;;;;;5.18;2.22;;;;;;;26.80;41.40;102288.03;5031581;28;20084;-72
2022/09/01 10:53:56;;;;;;;6.05;2.20;;;;;;;26.81;41.45;102295.25;5047886;28;20017;-82
2022/09/01 10:56:48;;;;;;;9.63;3.42;;;;;;;26.75;41.18;102296.00;5032685;28;20037;-75
2022/09/01 10:59:24;;;;;;;6.78;2.30;;;;;;;26.72;41.06;102286.38;5015690;28;20026;-72
2022/09/01 11:01:49;;;;;;;5.13;2.25;;;;;;;26.63;41.32;102287.91;5032220;28;20117;-71
2022/09/01 11:04:24;;;;;;;4.78;2.40;;;;;;;26.60;41.37;102288.66;5031914;28;20108;-77
2022/09/01 11:06:49;;;;;;;6.72;2.60;;;;;;;26.64;41.29;102292.31;5032644;28;20032;-72
2022/09/01 11:09:54;;;;;;;7.30;2.42;;;;;;;26.57;41.11;102283.81;5032166;28;20025;-72
2022/09/01 11:12:35;;;;;;;8.15;2.53;;;;;;;26.58;41.90;102269.41;5031858;28;20037;-77
2022/09/01 11:15:33;;;;;;;5.00;2.40;;;;;;;26.71;41.52;102283.97;5020697;28;20056;-83
2022/09/01 11:17:59;;;;;;;8.60;2.80;;;;;;;26.47;41.85;102274.94;5006705;28;20049;-73
2022/09/01 11:20:35;;;;;;;7.45;2.22;;;;;;;26.79;41.45;102274.41;5028224;28;20034;-72
2022/09/01 11:23:11;;;;;;;4.65;2.35;;;;;;;26.82;41.22;102271.63;5031706;28;20025;-73
2022/09/01 11:25:47;;;;;;;5.45;2.08;;;;;;;26.83;41.33;102264.06;5025563;28;20029;-81
2022/09/01 11:28:15;;;;;;;7.63;3.03;;;;;;;26.75;41.36;102268.78;5026735;28;20029;-77
2022/09/01 11:30:51;;;;;;;8.30;3.00;;;;;;;26.97;41.16;102266.94;5046793;28;20386;-72
2022/09/01 11:33:43;;;;;;;7.32;2.58;;;;;;;26.74;41.21;102260.75;5029898;28;20013;-76
2022/09/01 11:36:34;;;;;;;12.15;2.28;;;;;;;26.78;41.17;102261.59;5019607;28;20033;-71
2022/09/01 11:39:16;;;;;;;8.55;2.28;;;;;;;26.93;41.11;102266.13;5023373;28;20042;-72
2022/09/01 11:41:54;;;;;;;8.02;2.50;;;;;;;26.89;41.05;102267.28;5046578;28;20048;-69
2022/09/01 11:44:24;;;;;;;8.77;2.50;;;;;;;26.97;40.89;102271.75;5026262;28;20476;-76